createdAt,value
2018-06-13T00:00:03.769Z,13.37
2018-06-13T00:05:03.769Z,13.36
2018-06-13T00:10:03.774Z,13.35
2018-06-13T00:15:03.778Z,13.29
2018-06-13T00:20:03.778Z,13.17
2018-06-13T00:25:03.781Z,13.09
2018-06-13T00:30:03.780Z,13.04
2018-06-13T00:35:03.782Z,13.01
2018-06-13T00:40:03.787Z,12.96
2018-06-13T00:45:03.794Z,12.94
2018-06-13T00:50:03.794Z,12.92
2018-06-13T00:55:03.798Z,12.88
2018-06-13T01:00:03.801Z,12.9
2018-06-13T01:05:03.808Z,12.88
2018-06-13T01:10:03.808Z,12.9
2018-06-13T01:15:03.806Z,12.9
2018-06-13T01:20:03.805Z,12.91
2018-06-13T01:25:03.821Z,12.92
2018-06-13T01:30:03.814Z,12.91
2018-06-13T01:35:03.814Z,12.88
2018-06-13T01:40:03.821Z,12.82
2018-06-13T01:45:03.819Z,12.77
2018-06-13T01:50:03.823Z,12.7
2018-06-13T01:55:03.837Z,12.6
2018-06-13T02:00:03.830Z,12.55
2018-06-13T02:05:03.832Z,12.52
2018-06-13T02:10:03.849Z,12.48
2018-06-13T02:15:03.834Z,12.47
2018-06-13T02:20:03.842Z,12.45
2018-06-13T02:25:03.854Z,12.42
2018-06-13T02:30:03.857Z,12.42
2018-06-13T02:35:03.847Z,12.4
2018-06-13T02:40:03.855Z,12.36
2018-06-13T02:45:03.856Z,12.35
2018-06-13T02:50:03.860Z,12.34
2018-06-13T02:55:03.874Z,12.3
2018-06-13T03:00:03.898Z,12.28
2018-06-13T03:05:03.867Z,12.23
2018-06-13T03:10:03.881Z,12.22
2018-06-13T03:15:03.870Z,12.17
2018-06-13T03:20:03.870Z,12.03
2018-06-13T03:25:03.894Z,11.78
2018-06-13T03:30:03.880Z,11.63
2018-06-13T03:35:03.879Z,11.64
2018-06-13T03:40:03.892Z,11.62
2018-06-13T03:45:03.882Z,11.64
2018-06-13T03:50:03.888Z,11.72
2018-06-13T03:55:03.905Z,11.78
2018-06-13T04:00:03.896Z,11.82
2018-06-13T04:05:03.907Z,11.89
2018-06-13T04:10:03.915Z,11.91
2018-06-13T04:15:03.904Z,11.88
2018-06-13T04:20:03.904Z,11.9
2018-06-13T04:25:03.925Z,11.87
2018-06-13T04:30:03.909Z,11.88
2018-06-13T04:35:03.914Z,11.91
2018-06-13T04:40:03.924Z,12.03
2018-06-13T04:45:03.917Z,12.08
2018-06-13T04:50:03.920Z,12.16
2018-06-13T04:55:03.930Z,12.21
2018-06-13T05:00:03.930Z,12.22
2018-06-13T05:05:03.929Z,12.27
2018-06-13T05:10:03.934Z,12.3
2018-06-13T05:15:03.937Z,12.28
2018-06-13T05:20:03.935Z,12.35
2018-06-13T05:25:03.941Z,12.37
2018-06-13T05:30:03.942Z,12.4
2018-06-13T05:35:03.942Z,12.51
2018-06-13T05:40:03.945Z,12.61
2018-06-13T05:45:03.957Z,12.65
2018-06-13T05:50:03.948Z,12.74
2018-06-13T05:55:03.963Z,12.8
2018-06-13T06:00:03.981Z,12.78
2018-06-13T06:05:03.962Z,12.82
2018-06-13T06:10:03.961Z,12.9
2018-06-13T06:15:03.970Z,13.03
2018-06-13T06:20:03.964Z,13.03
2018-06-13T06:25:03.969Z,12.96
2018-06-13T06:30:03.980Z,13
2018-06-13T06:35:03.974Z,13.18
2018-06-13T06:40:03.976Z,13.3
2018-06-13T06:45:03.979Z,13.51
2018-06-13T06:50:03.985Z,13.74
2018-06-13T06:55:03.984Z,13.98
2018-06-13T07:00:03.999Z,14.07
2018-06-13T07:05:03.990Z,14.24
2018-06-13T07:10:03.993Z,14.33
2018-06-13T07:15:04.002Z,14.49
2018-06-13T07:20:04.008Z,14.72
2018-06-13T07:25:04.010Z,14.78
2018-06-13T07:30:04.008Z,14.87
2018-06-13T07:35:04.014Z,15.23
2018-06-13T07:40:04.013Z,15.78
2018-06-13T07:45:04.012Z,15.9
2018-06-13T07:50:04.016Z,16.01
2018-06-13T07:55:04.019Z,16.21
2018-06-13T08:00:04.031Z,16.1
2018-06-13T08:05:04.027Z,15.86
2018-06-13T08:10:04.031Z,15.72
2018-06-13T08:15:04.034Z,15.86
2018-06-13T08:20:04.038Z,16.01
2018-06-13T08:25:04.035Z,16.1
2018-06-13T08:30:04.044Z,16.4
2018-06-13T08:35:04.043Z,16.47
2018-06-13T08:40:04.044Z,16.82
2018-06-13T08:45:04.051Z,17.45
2018-06-13T08:50:04.048Z,17.9
2018-06-13T08:55:04.051Z,18.18
2018-06-13T09:00:04.057Z,17.91
2018-06-13T09:05:04.059Z,17.64
2018-06-13T09:10:04.064Z,17.49
2018-06-13T09:15:04.162Z,17.28
2018-06-13T09:20:04.066Z,16.58
2018-06-13T09:25:04.067Z,16.33
2018-06-13T09:30:04.070Z,15.88
2018-06-13T09:35:04.075Z,15.43
2018-06-13T09:40:04.079Z,15.28
2018-06-13T09:45:04.082Z,15.56
2018-06-13T09:50:04.117Z,15.46
2018-06-13T09:55:04.090Z,15.29
2018-06-13T10:00:04.182Z,14.65
2018-06-13T10:05:04.087Z,14.42
2018-06-13T10:10:04.093Z,14.69
2018-06-13T10:15:04.100Z,15.58
2018-06-13T10:20:04.094Z,16.51
2018-06-13T10:25:04.103Z,17.13
2018-06-13T10:30:04.101Z,16.15
2018-06-13T10:35:04.103Z,15.22
2018-06-13T10:40:04.107Z,14.51
2018-06-13T10:45:04.109Z,14.86
2018-06-13T10:50:04.112Z,15.54
2018-06-13T10:55:04.113Z,16.35
2018-06-13T11:00:04.118Z,17.59
2018-06-13T11:05:04.119Z,17.82
2018-06-13T11:10:04.127Z,17.66
2018-06-13T11:15:04.131Z,17.88
2018-06-13T11:20:04.131Z,18.02
2018-06-13T11:25:04.174Z,18.29
2018-06-13T11:30:04.133Z,18.69
2018-06-13T11:35:04.143Z,18.41
2018-06-13T11:40:04.141Z,18.83
2018-06-13T11:45:04.138Z,18.94
2018-06-13T11:50:04.144Z,18.73
2018-06-13T11:55:04.148Z,19.01
2018-06-13T12:00:04.154Z,19.08
2018-06-13T12:05:04.148Z,19.01
2018-06-13T12:10:04.154Z,19.41
2018-06-13T12:15:04.160Z,18.57
2018-06-13T12:20:04.158Z,18.24
2018-06-13T12:25:04.164Z,18.61
2018-06-13T12:30:04.168Z,19.29
2018-06-13T12:35:04.171Z,19.71
2018-06-13T12:40:04.175Z,20.64
2018-06-13T12:45:04.175Z,21.27
2018-06-13T12:50:04.175Z,21.76
2018-06-13T12:55:04.183Z,21.28
2018-06-13T13:00:04.181Z,20.72
2018-06-13T13:05:04.197Z,20.1
2018-06-13T13:10:04.245Z,19.41
2018-06-13T13:15:04.195Z,18.58
2018-06-13T13:20:04.250Z,18.26
2018-06-13T13:25:04.195Z,18.46
2018-06-13T13:30:04.235Z,19
2018-06-13T13:35:04.201Z,19.28
2018-06-13T13:40:04.206Z,19.11
2018-06-13T13:45:04.214Z,18.55
2018-06-13T13:50:04.206Z,17.73
2018-06-13T13:55:04.211Z,17.46
2018-06-13T14:00:04.211Z,17.09
2018-06-13T14:05:04.218Z,17.11
2018-06-13T14:10:04.223Z,17.24
2018-06-13T14:15:04.223Z,17.43
2018-06-13T14:20:04.224Z,17.72
2018-06-13T14:25:04.228Z,17.5
2018-06-13T14:30:04.233Z,17.34
2018-06-13T14:35:04.232Z,17.36
2018-06-13T14:40:04.237Z,17.54
2018-06-13T14:45:04.277Z,17.6
2018-06-13T14:50:04.238Z,17.38
2018-06-13T14:55:04.247Z,17.2
2018-06-13T15:00:04.243Z,17.33
2018-06-13T15:05:04.245Z,17.64
2018-06-13T15:10:04.249Z,17.8
2018-06-13T15:15:04.254Z,18.4
2018-06-13T15:20:04.265Z,18.96
2018-06-13T15:25:04.255Z,18.67
2018-06-13T15:28:57.697Z,18.2
2018-06-13T15:30:03.382Z,18.09
2018-06-13T15:35:03.398Z,17.53
2018-06-13T15:40:03.393Z,17.21
2018-06-13T15:45:03.406Z,17.04
2018-06-13T15:50:03.533Z,16.96
2018-06-13T15:55:03.404Z,16.88
2018-06-13T16:00:03.425Z,16.8
2018-06-13T16:05:03.403Z,16.9
2018-06-13T16:10:03.405Z,17.14
2018-06-13T16:15:03.410Z,17.96
2018-06-13T16:20:03.479Z,18.26
2018-06-13T16:25:03.415Z,18.09
2018-06-13T16:30:03.419Z,17.8
2018-06-13T16:35:03.423Z,17.84
2018-06-13T16:40:03.424Z,17.93
2018-06-13T16:45:03.432Z,17.69
2018-06-13T16:50:03.630Z,17.49
2018-06-13T16:55:03.430Z,17.25
2018-06-13T17:00:03.501Z,17.32
2018-06-13T17:05:03.507Z,17.41
2018-06-13T17:10:03.507Z,17.54
2018-06-13T17:15:03.513Z,17.67
2018-06-13T17:20:03.512Z,17.4
2018-06-13T17:25:03.511Z,17.24
2018-06-13T17:30:03.518Z,17.23
2018-06-13T17:35:03.522Z,17.21
2018-06-13T17:40:03.527Z,17.3
2018-06-13T17:45:03.553Z,17.35
2018-06-13T17:50:03.527Z,17.17
2018-06-13T17:55:03.530Z,17.01
2018-06-13T18:00:03.532Z,16.88
2018-06-13T18:05:03.535Z,16.8
2018-06-13T18:10:03.537Z,16.76
2018-06-13T18:15:03.551Z,16.6
2018-06-13T18:20:03.560Z,16.5
2018-06-13T18:25:03.543Z,16.41
2018-06-13T18:30:03.549Z,16.39
2018-06-13T18:35:03.552Z,16.36
2018-06-13T18:40:03.562Z,16.32
2018-06-13T18:45:03.565Z,16.21
2018-06-13T18:50:03.558Z,16.12
2018-06-13T18:55:03.567Z,16.02
2018-06-13T19:00:03.567Z,15.92
2018-06-13T19:05:03.571Z,15.87
2018-06-13T19:10:03.569Z,15.76
2018-06-13T19:15:03.574Z,15.69
2018-06-13T19:20:03.578Z,15.61
2018-06-13T19:25:03.576Z,15.52
2018-06-13T19:30:03.581Z,15.41
2018-06-13T19:35:03.580Z,15.3
2018-06-13T19:40:03.581Z,15.16
2018-06-13T19:45:03.595Z,15.01
2018-06-13T19:50:03.587Z,14.91
2018-06-13T19:55:03.591Z,14.81
2018-06-13T20:00:03.611Z,14.71
2018-06-13T20:05:03.600Z,14.59
2018-06-13T20:10:03.597Z,14.54
2018-06-13T20:15:03.615Z,14.48
2018-06-13T20:20:03.604Z,14.5
2018-06-13T20:25:03.685Z,14.49
2018-06-13T20:30:03.623Z,14.44
2018-06-13T20:35:03.610Z,14.38
2018-06-13T20:40:03.626Z,14.28
2018-06-13T20:45:03.670Z,14.19
2018-06-13T20:50:03.622Z,14.14
2018-06-13T20:55:03.621Z,14.17
2018-06-13T21:00:03.636Z,14.25
2018-06-13T21:05:03.623Z,14.33
2018-06-13T21:10:03.629Z,14.33
2018-06-13T21:15:03.637Z,14.35
2018-06-13T21:20:03.631Z,14.25
2018-06-13T21:25:03.643Z,14.17
2018-06-13T21:30:03.649Z,14.11
2018-06-13T21:35:03.716Z,13.96
2018-06-13T21:40:03.650Z,13.78
2018-06-13T21:45:03.671Z,13.62
2018-06-13T21:50:03.664Z,13.59
2018-06-13T21:55:03.670Z,13.59
2018-06-13T22:00:03.672Z,13.43
2018-06-13T22:05:03.662Z,13.18
2018-06-13T22:10:03.673Z,12.97
2018-06-13T22:15:03.683Z,12.75
2018-06-13T22:20:03.686Z,12.5
2018-06-13T22:25:03.681Z,12.35
2018-06-13T22:30:03.698Z,12.07
2018-06-13T22:35:03.672Z,11.87
2018-06-13T22:40:03.675Z,11.68
2018-06-13T22:45:03.689Z,11.49
2018-06-13T22:50:03.687Z,11.34
2018-06-13T22:55:03.682Z,11.12
2018-06-13T23:00:03.691Z,10.98
2018-06-13T23:05:03.696Z,10.94
2018-06-13T23:10:03.693Z,10.83
2018-06-13T23:15:03.694Z,10.69
2018-06-13T23:20:03.714Z,10.44
2018-06-13T23:25:03.704Z,10.24
2018-06-13T23:30:03.703Z,9.97
2018-06-13T23:35:03.707Z,9.81
2018-06-13T23:40:03.708Z,9.77
2018-06-13T23:45:03.710Z,9.51
2018-06-13T23:50:03.726Z,9.22
2018-06-13T23:55:03.711Z,8.96
